Time;durP1;ratioP1;P1;durP2;ratioP2;P2;SDS_P1;SDS_P2;PMS_P1;PMS_P2;Temp;Humidity;BMP_temperature;BMP_pressure;BME280_temperature;BME280_humidity;BME280_pressure;Samples;Min_cycle;Max_cycle;Signal;HPM_P1;HPM_P2
2021/01/30 00:01:59;;;;;;;6.15;1.42;;;9.10;99.60;;;;;;5011069;28;20120;-51
2021/01/30 00:04:24;;;;;;;1.40;1.30;;;9.00;99.90;;;;;;5005165;28;20039;-43
2021/01/30 00:06:51;;;;;;;3.13;1.42;;;9.10;99.90;;;;;;4991265;28;20490;-46
2021/01/30 00:09:18;;;;;;;3.85;1.52;;;9.10;99.90;;;;;;4995295;28;20034;-49
2021/01/30 00:11:52;;;;;;;6.18;1.70;;;9.00;99.90;;;;;;5011211;28;20065;-52
2021/01/30 00:14:26;;;;;;;7.47;2.55;;;9.00;99.90;;;;;;5007032;28;20026;-48
2021/01/30 00:16:51;;;;;;;4.90;1.42;;;8.90;99.90;;;;;;4990140;28;20026;-50
2021/01/30 00:19:17;;;;;;;4.30;2.05;;;8.90;99.90;;;;;;4996812;28;20516;-51
2021/01/30 00:21:53;;;;;;;5.05;1.70;;;8.90;99.90;;;;;;5010653;28;20026;-49
2021/01/30 00:24:19;;;;;;;3.20;1.52;;;8.90;99.90;;;;;;5010620;28;20025;-51
2021/01/30 00:26:52;;;;;;;3.65;1.58;;;8.90;99.90;;;;;;5010513;28;20052;-54
2021/01/30 00:29:23;;;;;;;3.60;1.77;;;8.80;99.90;;;;;;5010936;28;20385;-50
2021/01/30 00:31:49;;;;;;;3.75;1.73;;;8.90;99.90;;;;;;5010745;28;20029;-48
2021/01/30 00:34:16;;;;;;;2.60;1.60;;;8.80;99.90;;;;;;5010604;28;20101;-48
2021/01/30 00:36:42;;;;;;;3.25;1.67;;;8.80;99.90;;;;;;5010660;28;20032;-52
2021/01/30 00:39:07;;;;;;;3.75;1.73;;;8.80;99.90;;;;;;5009531;28;20038;-51
2021/01/30 00:41:33;;;;;;;7.80;1.73;;;8.80;99.90;;;;;;5010773;28;20048;-50
2021/01/30 00:43:59;;;;;;;1.95;1.65;;;8.80;99.90;;;;;;5010446;28;20531;-52
2021/01/30 00:46:26;;;;;;;5.68;1.17;;;8.80;99.90;;;;;;5010812;28;20516;-49
2021/01/30 00:48:51;;;;;;;5.88;1.63;;;8.80;99.90;;;;;;5010751;28;20485;-52
2021/01/30 00:51:20;;;;;;;4.25;2.00;;;8.80;99.90;;;;;;5010937;28;20076;-50
2021/01/30 00:53:47;;;;;;;10.50;2.17;;;8.70;99.90;;;;;;5012309;28;20030;-55
2021/01/30 00:56:13;;;;;;;4.30;1.55;;;8.80;99.80;;;;;;5014761;28;20037;-51
2021/01/30 00:58:39;;;;;;;3.67;1.60;;;8.80;99.70;;;;;;5014640;28;20030;-52
2021/01/30 01:01:05;;;;;;;5.68;1.75;;;8.80;99.40;;;;;;5014461;28;20083;-48
2021/01/30 01:03:31;;;;;;;3.38;1.60;;;8.80;99.20;;;;;;5014181;28;20030;-52
2021/01/30 01:05:56;;;;;;;3.53;1.40;;;8.90;99.30;;;;;;5014374;28;20060;-52
2021/01/30 01:08:22;;;;;;;4.05;1.77;;;8.90;99.20;;;;;;5014359;28;20068;-54
2021/01/30 01:10:47;;;;;;;4.03;1.77;;;8.90;99.00;;;;;;5014494;28;20026;-51
2021/01/30 01:13:13;;;;;;;2.97;1.73;;;8.80;99.20;;;;;;5014039;28;20026;-54
2021/01/30 01:15:38;;;;;;;4.20;1.27;;;8.80;99.00;;;;;;5014209;28;20041;-47
2021/01/30 01:18:04;;;;;;;3.05;1.23;;;8.80;99.10;;;;;;5012751;28;20561;-49
2021/01/30 01:20:30;;;;;;;7.22;2.25;;;8.90;99.10;;;;;;5014148;28;20026;-52
2021/01/30 01:22:55;;;;;;;7.07;1.45;;;8.80;99.00;;;;;;5014087;28;20034;-49
2021/01/30 01:25:22;;;;;;;4.72;2.53;;;8.70;99.10;;;;;;5014095;28;20405;-49
2021/01/30 01:27:48;;;;;;;3.40;1.13;;;8.60;99.30;;;;;;5013473;28;20036;-47
2021/01/30 01:30:15;;;;;;;5.28;1.48;;;8.70;99.30;;;;;;5012756;28;20109;-50
2021/01/30 01:32:42;;;;;;;1.55;1.10;;;8.60;99.40;;;;;;5013513;28;20018;-52
2021/01/30 01:35:12;;;;;;;2.50;1.50;;;8.60;99.40;;;;;;5014132;28;20022;-50
2021/01/30 01:37:37;;;;;;;4.50;1.65;;;8.60;99.40;;;;;;5012630;28;20026;-51
2021/01/30 01:40:04;;;;;;;4.28;1.40;;;8.60;99.50;;;;;;5013784;28;20026;-51
2021/01/30 01:42:29;;;;;;;4.57;1.52;;;8.50;99.50;;;;;;5013639;28;20459;-53
2021/01/30 01:44:55;;;;;;;4.28;1.88;;;8.50;99.60;;;;;;5013452;28;20022;-54
2021/01/30 01:47:25;;;;;;;9.13;1.88;;;8.50;99.70;;;;;;5013302;28;20029;-51
2021/01/30 01:49:54;;;;;;;1.88;1.50;;;8.50;99.60;;;;;;5013627;28;20084;-51
2021/01/30 01:52:29;;;;;;;6.40;2.10;;;8.50;99.50;;;;;;5013317;28;20022;-54
2021/01/30 01:55:04;;;;;;;2.90;1.40;;;8.50;99.50;;;;;;5013358;28;20088;-53
2021/01/30 01:57:31;;;;;;;2.97;2.10;;;8.50;99.60;;;;;;5013356;28;20084;-52
2021/01/30 01:59:57;;;;;;;4.75;1.50;;;8.50;99.50;;;;;;5013293;28;20033;-51
2021/01/30 02:02:25;;;;;;;3.38;1.52;;;8.60;99.40;;;;;;5014468;28;20046;-51
2021/01/30 02:05:12;;;;;;;3.50;1.20;;;8.60;99.20;;;;;;5013144;28;20481;-52
2021/01/30 02:07:40;;;;;;;6.60;1.27;;;8.60;99.40;;;;;;5014124;28;20025;-57
2021/01/30 02:10:10;;;;;;;6.95;1.63;;;8.60;99.50;;;;;;5013896;28;20053;-52
2021/01/30 02:12:36;;;;;;;3.92;1.38;;;8.60;99.50;;;;;;5013959;28;20026;-52
2021/01/30 02:15:02;;;;;;;6.47;1.88;;;8.60;99.70;;;;;;5013424;28;20053;-54
2021/01/30 02:17:46;;;;;;;2.13;1.10;;;8.60;99.80;;;;;;5013227;28;20065;-50
2021/01/30 02:20:44;;;;;;;2.58;1.45;;;8.50;99.80;;;;;;5012118;28;20540;-51
2021/01/30 02:23:28;;;;;;;4.13;1.80;;;8.50;99.90;;;;;;5012693;28;20073;-51
2021/01/30 02:26:00;;;;;;;5.75;1.40;;;8.40;99.90;;;;;;5012788;28;20396;-50
2021/01/30 02:28:39;;;;;;;4.15;1.27;;;8.40;99.90;;;;;;5012979;28;20074;-48
2021/01/30 02:31:21;;;;;;;1.75;1.33;;;8.50;99.90;;;;;;5011360;28;20064;-48
2021/01/30 02:34:04;;;;;;;4.75;1.50;;;8.50;99.90;;;;;;5012572;28;20493;-50
2021/01/30 02:36:30;;;;;;;6.22;1.52;;;8.50;99.90;;;;;;5012992;28;20096;-50
2021/01/30 02:39:08;;;;;;;4.85;2.50;;;8.50;99.90;;;;;;5012884;28;20493;-46
2021/01/30 02:41:38;;;;;;;2.75;2.22;;;8.50;99.90;;;;;;5012624;28;20036;-48
2021/01/30 02:44:07;;;;;;;6.43;1.73;;;8.50;99.90;;;;;;5012378;28;20084;-48
2021/01/30 02:46:37;;;;;;;1.52;0.90;;;8.50;99.90;;;;;;5012552;28;20061;-52
2021/01/30 02:49:09;;;;;;;2.92;1.42;;;8.50;99.90;;;;;;5012349;28;20014;-48
2021/01/30 02:51:42;;;;;;;4.47;1.83;;;8.50;99.90;;;;;;5012262;28;20392;-48
2021/01/30 02:54:09;;;;;;;8.00;1.65;;;8.50;99.90;;;;;;5011974;28;20018;-49
2021/01/30 02:56:35;;;;;;;3.38;1.58;;;8.40;99.90;;;;;;5011047;28;20124;-50
2021/01/30 02:59:11;;;;;;;6.50;1.88;;;8.50;99.90;;;;;;5012165;28;20108;-52
2021/01/30 03:01:38;;;;;;;5.68;1.70;;;8.50;99.90;;;;;;5011973;28;20041;-52
2021/01/30 03:04:09;;;;;;;5.53;2.50;;;8.50;99.90;;;;;;5011801;28;20029;-50
2021/01/30 03:06:54;;;;;;;4.55;1.48;;;8.50;99.90;;;;;;5012067;28;20030;-54
2021/01/30 03:09:33;;;;;;;4.13;1.30;;;8.40;99.90;;;;;;5012072;28;20516;-47
2021/01/30 03:12:25;;;;;;;4.10;1.45;;;8.50;99.90;;;;;;5011982;28;20033;-48
2021/01/30 03:15:06;;;;;;;5.50;1.30;;;8.50;99.90;;;;;;5011780;28;20109;-49
2021/01/30 03:17:32;;;;;;;1.20;1.00;;;8.40;99.90;;;;;;5011233;28;20340;-53
2021/01/30 03:20:00;;;;;;;2.38;1.05;;;8.50;99.90;;;;;;5011865;28;20026;-48
2021/01/30 03:22:31;;;;;;;3.72;1.35;;;8.50;99.90;;;;;;5010532;28;20057;-50
2021/01/30 03:24:57;;;;;;;6.00;1.48;;;8.40;99.90;;;;;;5011605;28;20117;-52
2021/01/30 03:27:28;;;;;;;4.95;1.42;;;8.40;99.90;;;;;;5011523;28;20132;-49
2021/01/30 03:29:55;;;;;;;2.80;1.33;;;8.40;99.90;;;;;;5011813;28;20030;-53
2021/01/30 03:32:23;;;;;;;3.42;1.15;;;8.50;99.90;;;;;;5011707;28;20026;-51
2021/01/30 03:34:49;;;;;;;3.67;1.63;;;8.50;99.90;;;;;;5011334;28;20022;-52
2021/01/30 03:37:15;;;;;;;3.65;1.55;;;8.50;99.90;;;;;;5011600;28;20025;-48
2021/01/30 03:39:41;;;;;;;5.45;1.40;;;8.50;99.90;;;;;;5011454;28;20038;-48
2021/01/30 03:42:06;;;;;;;4.32;1.10;;;8.40;99.90;;;;;;5010086;28;20033;-49
2021/01/30 03:44:32;;;;;;;3.90;1.80;;;8.40;99.90;;;;;;5011224;28;20105;-49
2021/01/30 03:46:58;;;;;;;3.85;0.82;;;8.40;99.90;;;;;;5011235;28;20481;-48
2021/01/30 03:49:23;;;;;;;3.60;1.08;;;8.40;99.90;;;;;;5011293;28;20037;-48
2021/01/30 03:51:49;;;;;;;4.15;1.13;;;8.50;99.90;;;;;;5011159;28;20026;-48
2021/01/30 03:54:15;;;;;;;1.75;1.23;;;8.40;99.90;;;;;;5010922;28;20133;-49
2021/01/30 03:56:45;;;;;;;2.88;1.65;;;8.40;99.90;;;;;;5011469;28;20034;-47
2021/01/30 03:59:13;;;;;;;2.88;1.00;;;8.50;99.90;;;;;;5011281;28;20484;-49
2021/01/30 04:01:39;;;;;;;2.80;0.90;;;8.50;99.90;;;;;;5009194;28;20037;-48
2021/01/30 04:04:05;;;;;;;1.65;0.82;;;8.50;99.90;;;;;;5010951;28;20026;-50
2021/01/30 04:06:30;;;;;;;3.30;1.20;;;8.50;99.90;;;;;;5010945;28;20041;-46
2021/01/30 04:08:56;;;;;;;2.90;0.88;;;8.40;99.90;;;;;;5010886;28;20485;-48
2021/01/30 04:11:27;;;;;;;3.90;0.80;;;8.40;99.90;;;;;;5010765;28;20028;-50
2021/01/30 04:13:53;;;;;;;3.65;0.95;;;8.50;99.90;;;;;;5010736;28;20108;-46
2021/01/30 04:16:18;;;;;;;2.05;1.10;;;8.50;99.90;;;;;;5010918;28;20393;-46
2021/01/30 04:18:44;;;;;;;4.38;0.73;;;8.50;99.90;;;;;;5010805;28;20030;-46
2021/01/30 04:21:09;;;;;;;4.57;1.20;;;8.40;99.90;;;;;;5010789;28;20036;-52
2021/01/30 04:23:35;;;;;;;3.25;0.73;;;8.40;99.90;;;;;;5010480;28;20358;-46
2021/01/30 04:26:00;;;;;;;2.55;0.77;;;8.40;99.90;;;;;;5010742;28;20045;-47
2021/01/30 04:28:26;;;;;;;2.20;0.80;;;8.30;99.90;;;;;;5010590;28;20046;-48
2021/01/30 04:30:51;;;;;;;6.85;1.35;;;8.30;99.90;;;;;;5010662;28;20026;-50
2021/01/30 04:33:17;;;;;;;1.30;0.70;;;8.30;99.90;;;;;;5010489;28;20482;-48
2021/01/30 04:35:43;;;;;;;0.98;0.85;;;8.20;99.90;;;;;;5010723;28;20362;-46
2021/01/30 04:38:08;;;;;;;2.47;0.90;;;8.20;99.90;;;;;;5010677;28;20473;-48
2021/01/30 04:40:35;;;;;;;4.00;0.88;;;8.20;99.90;;;;;;5010686;28;20166;-46
2021/01/30 04:43:13;;;;;;;1.75;0.85;;;8.20;99.90;;;;;;5010260;28;20026;-47
2021/01/30 04:45:51;;;;;;;1.92;0.90;;;8.20;99.90;;;;;;5010706;28;20026;-47
2021/01/30 04:48:42;;;;;;;2.47;0.73;;;8.10;99.90;;;;;;5010680;28;20083;-47
2021/01/30 04:51:16;;;;;;;1.23;0.70;;;8.10;99.90;;;;;;5010816;28;20030;-52
2021/01/30 04:54:16;;;;;;;1.23;0.57;;;8.20;99.90;;;;;;5010343;28;20033;-49
2021/01/30 04:57:00;;;;;;;2.17;0.85;;;8.20;99.90;;;;;;5010553;28;20026;-47
2021/01/30 04:59:52;;;;;;;1.88;0.80;;;8.20;99.90;;;;;;5010908;28;20033;-46
2021/01/30 05:02:34;;;;;;;3.55;1.40;;;8.20;99.90;;;;;;5010449;28;20036;-50
2021/01/30 05:05:01;;;;;;;1.73;1.10;;;8.20;99.90;;;;;;5009498;28;20389;-48
2021/01/30 05:07:42;;;;;;;0.80;0.73;;;8.20;99.90;;;;;;5010528;28;20474;-49
2021/01/30 05:10:19;;;;;;;2.83;0.90;;;8.10;99.90;;;;;;5009607;28;20026;-49
2021/01/30 05:12:57;;;;;;;1.08;0.98;;;8.10;99.90;;;;;;5010366;28;20084;-54
2021/01/30 05:15:43;;;;;;;2.80;1.48;;;8.20;99.90;;;;;;5010550;28;20022;-46
2021/01/30 05:18:20;;;;;;;1.10;0.90;;;8.20;99.90;;;;;;5010481;28;20058;-51
2021/01/30 05:20:53;;;;;;;3.45;0.98;;;8.20;99.90;;;;;;5010629;28;20443;-47
2021/01/30 05:23:19;;;;;;;1.98;0.70;;;8.10;99.90;;;;;;5010394;28;20033;-50
2021/01/30 05:25:47;;;;;;;0.88;0.65;;;8.20;99.90;;;;;;5010350;28;20030;-53
2021/01/30 05:28:30;;;;;;;1.90;0.85;;;8.20;99.90;;;;;;5010012;28;20022;-46
2021/01/30 05:31:16;;;;;;;4.63;0.80;;;8.20;99.90;;;;;;5010319;28;20026;-49
2021/01/30 05:34:01;;;;;;;1.75;0.80;;;8.20;99.90;;;;;;5010210;28;20068;-48
2021/01/30 05:36:50;;;;;;;6.05;1.88;;;8.20;99.90;;;;;;5010179;28;20033;-49
2021/01/30 05:39:25;;;;;;;3.75;1.05;;;8.20;99.90;;;;;;5010829;28;20038;-48
2021/01/30 05:42:21;;;;;;;5.30;1.00;;;8.20;99.90;;;;;;5013543;28;20113;-51
2021/01/30 05:44:54;;;;;;;3.22;0.73;;;8.20;99.90;;;;;;5013224;28;20041;-47
2021/01/30 05:47:24;;;;;;;3.33;1.08;;;8.20;99.90;;;;;;5013656;28;20535;-52
2021/01/30 05:50:13;;;;;;;4.85;1.17;;;8.20;99.90;;;;;;5013494;28;20030;-52
2021/01/30 05:52:39;;;;;;;1.75;0.80;;;8.30;99.90;;;;;;5008776;28;20072;-48
2021/01/30 05:55:21;;;;;;;2.47;0.70;;;8.30;99.90;;;;;;5002061;28;20031;-47
2021/01/30 05:57:47;;;;;;;1.23;0.88;;;8.30;99.90;;;;;;4993592;28;20105;-49
2021/01/30 06:00:17;;;;;;;0.70;0.70;;;8.30;99.90;;;;;;4994972;28;20101;-49
2021/01/30 06:03:18;;;;;;;4.90;1.55;;;8.30;99.90;;;;;;4993250;28;20493;-48
2021/01/30 06:05:47;;;;;;;3.13;0.77;;;8.20;99.90;;;;;;5005032;28;20033;-50
2021/01/30 06:08:28;;;;;;;2.17;0.90;;;8.20;99.90;;;;;;5012767;28;20037;-47
2021/01/30 06:11:13;;;;;;;6.13;1.15;;;8.30;99.90;;;;;;5013188;28;20037;-48
2021/01/30 06:14:00;;;;;;;5.40;1.20;;;8.20;99.90;;;;;;4999338;28;20026;-50
2021/01/30 06:16:42;;;;;;;6.97;2.38;;;8.20;99.90;;;;;;4996133;28;20284;-49
2021/01/30 06:19:16;;;;;;;8.13;2.22;;;8.10;99.90;;;;;;5002506;28;20030;-52
2021/01/30 06:21:43;;;;;;;3.17;1.40;;;8.20;99.90;;;;;;5006124;28;20029;-52
2021/01/30 06:24:29;;;;;;;4.93;1.92;;;8.10;99.90;;;;;;5000510;28;20026;-52
2021/01/30 06:26:56;;;;;;;;;;;8.10;99.90;;;;;;4998874;28;20026;-51
2021/01/30 06:29:27;;;;;;;6.22;1.60;;;8.00;99.90;;;;;;5012858;28;20289;-51
2021/01/30 06:31:55;;;;;;;13.48;2.42;;;8.00;99.90;;;;;;5009762;28;20029;-50
2021/01/30 06:34:31;;;;;;;14.32;2.90;;;8.10;99.90;;;;;;4990566;28;20030;-47
2021/01/30 06:36:58;;;;;;;10.75;2.20;;;8.00;99.90;;;;;;4992679;28;20026;-50
2021/01/30 06:39:34;;;;;;;9.50;2.00;;;8.00;99.90;;;;;;5011925;28;20042;-49
2021/01/30 06:42:12;;;;;;;9.23;1.90;;;8.00;99.90;;;;;;5009657;28;20149;-47
2021/01/30 06:44:39;;;;;;;11.18;2.63;;;8.00;99.90;;;;;;4994437;28;20030;-49
2021/01/30 06:47:19;;;;;;;11.38;2.65;;;8.10;99.90;;;;;;4996560;28;20096;-49
2021/01/30 06:49:50;;;;;;;11.05;2.90;;;8.00;99.90;;;;;;5014638;28;20030;-49
2021/01/30 06:52:27;;;;;;;10.75;3.00;;;8.10;99.90;;;;;;5009632;28;20030;-50
2021/01/30 06:55:05;;;;;;;16.48;3.80;;;8.00;99.90;;;;;;4992950;28;20504;-55
2021/01/30 06:58:02;;;;;;;15.90;3.88;;;7.90;99.90;;;;;;4994879;28;20026;-51
2021/01/30 07:00:31;;;;;;;9.38;2.97;;;8.00;99.90;;;;;;5009546;28;20075;-52
2021/01/30 07:03:14;;;;;;;14.55;2.85;;;8.10;99.90;;;;;;4999376;28;20509;-53
2021/01/30 07:05:50;;;;;;;9.10;2.40;;;8.10;99.90;;;;;;5008320;28;20037;-51
2021/01/30 07:08:37;;;;;;;16.23;2.70;;;8.20;99.90;;;;;;4996060;28;20039;-51
2021/01/30 07:11:37;;;;;;;10.45;2.47;;;8.30;99.90;;;;;;4995607;28;20038;-52
2021/01/30 07:14:25;;;;;;;15.10;2.90;;;8.30;99.90;;;;;;4989034;28;20026;-54
2021/01/30 07:16:58;;;;;;;15.15;2.55;;;8.20;99.90;;;;;;4989688;28;20035;-53
2021/01/30 07:19:44;;;;;;;15.15;3.00;;;8.30;99.90;;;;;;4997821;28;20034;-50
2021/01/30 07:22:26;;;;;;;16.20;2.80;;;8.30;99.90;;;;;;5008834;28;20030;-54
2021/01/30 07:25:02;;;;;;;19.00;3.00;;;8.40;99.90;;;;;;4994858;28;20045;-52
2021/01/30 07:27:39;;;;;;;11.38;2.30;;;8.40;99.90;;;;;;4987926;28;20041;-53
2021/01/30 07:30:13;;;;;;;10.43;3.33;;;8.40;99.90;;;;;;5002189;28;20290;-52
2021/01/30 07:32:42;;;;;;;16.67;3.33;;;8.40;99.90;;;;;;5008257;28;20026;-53
2021/01/30 07:35:25;;;;;;;16.50;2.92;;;8.50;99.90;;;;;;4995050;28;20066;-49
2021/01/30 07:38:20;;;;;;;12.75;3.40;;;8.40;99.90;;;;;;4989220;28;20478;-49
2021/01/30 07:40:57;;;;;;;25.77;4.03;;;8.30;99.90;;;;;;4997993;28;20053;-53
2021/01/30 07:43:32;;;;;;;24.25;4.47;;;8.30;99.90;;;;;;5007129;28;20033;-58
2021/01/30 07:46:03;;;;;;;19.20;3.35;;;8.30;99.90;;;;;;4988549;28;20121;-56
2021/01/30 07:48:34;;;;;;;17.52;3.58;;;8.20;99.90;;;;;;4990236;28;20030;-54
2021/01/30 07:51:11;;;;;;;19.75;3.72;;;8.20;99.90;;;;;;5006999;28;20025;-52
2021/01/30 07:53:38;;;;;;;13.27;3.72;;;8.30;99.90;;;;;;5007183;28;20026;-57
2021/01/30 07:56:18;;;;;;;23.25;4.88;;;8.30;99.90;;;;;;4991428;28;20105;-55
2021/01/30 07:58:52;;;;;;;24.98;4.72;;;8.20;99.90;;;;;;4995431;28;20551;-54
2021/01/30 08:01:35;;;;;;;16.77;3.47;;;8.30;99.90;;;;;;5010962;28;20117;-56
2021/01/30 08:04:11;;;;;;;15.25;3.08;;;8.30;99.90;;;;;;5010297;28;20025;-54
2021/01/30 08:06:41;;;;;;;21.85;4.20;;;8.30;99.90;;;;;;5009631;28;20042;-48
2021/01/30 08:09:27;;;;;;;28.13;4.30;;;8.30;99.90;;;;;;5011156;28;20145;-52
2021/01/30 08:12:14;;;;;;;24.25;3.42;;;8.30;99.90;;;;;;5009183;28;20030;-51
2021/01/30 08:15:05;;;;;;;14.82;3.45;;;8.40;99.90;;;;;;5009150;28;20111;-52
2021/01/30 08:18:02;;;;;;;15.68;5.40;;;8.40;99.90;;;;;;5009258;28;20087;-49
2021/01/30 08:20:37;;;;;;;;;;;8.40;99.90;;;;;;5000831;28;20485;-49
2021/01/30 08:23:12;;;;;;;19.95;3.47;;;8.40;99.90;;;;;;4990835;28;19905;-49
2021/01/30 08:25:55;;;;;;;22.23;4.03;;;8.40;99.90;;;;;;5002055;28;20307;-52
2021/01/30 08:28:25;;;;;;;22.38;3.83;;;8.40;99.90;;;;;;5009089;28;20390;-53
2021/01/30 08:30:53;;;;;;;16.15;3.63;;;8.40;99.90;;;;;;5010791;28;20485;-48
2021/01/30 08:33:18;;;;;;;21.48;3.92;;;8.40;99.90;;;;;;5005002;28;20048;-50
2021/01/30 08:35:49;;;;;;;23.35;4.32;;;8.50;99.90;;;;;;4999241;28;20022;-54
2021/01/30 08:38:17;;;;;;;24.02;3.83;;;8.50;99.90;;;;;;5010785;28;20062;-58
2021/01/30 08:40:55;;;;;;;18.92;3.95;;;8.50;99.90;;;;;;5000179;28;20049;-53
2021/01/30 08:43:45;;;;;;;23.00;5.55;;;8.50;99.90;;;;;;4990975;28;20462;-50
2021/01/30 08:46:27;;;;;;;15.65;4.55;;;8.50;99.90;;;;;;4991359;28;20517;-50
2021/01/30 08:49:01;;;;;;;17.13;4.10;;;8.50;99.90;;;;;;4990993;28;20030;-52
2021/01/30 08:51:27;;;;;;;22.95;4.22;;;8.40;99.90;;;;;;4990719;28;20030;-52
2021/01/30 08:53:53;;;;;;;20.17;6.05;;;8.30;99.90;;;;;;5009442;28;20440;-53
2021/01/30 08:56:45;;;;;;;16.80;4.30;;;8.30;99.90;;;;;;5010516;28;20427;-49
2021/01/30 08:59:45;;;;;;;16.65;3.15;;;8.30;99.90;;;;;;5010501;28;20409;-49
2021/01/30 09:02:29;;;;;;;22.75;3.85;;;8.30;99.90;;;;;;4999403;28;20041;-49
2021/01/30 09:05:18;;;;;;;20.33;4.00;;;8.40;99.90;;;;;;4990830;28;20405;-48
2021/01/30 09:07:54;;;;;;;9.63;2.97;;;8.30;99.90;;;;;;4994226;28;20030;-50
2021/01/30 09:10:22;;;;;;;14.52;3.88;;;8.30;99.90;;;;;;5000146;28;20026;-51
2021/01/30 09:12:56;;;;;;;19.33;4.55;;;8.30;99.90;;;;;;5010038;28;20320;-48
2021/01/30 09:15:47;;;;;;;26.40;4.35;;;8.20;99.90;;;;;;5009570;28;20458;-48
2021/01/30 09:18:27;;;;;;;21.17;4.28;;;8.20;99.90;;;;;;5012270;28;20073;-50
2021/01/30 09:21:26;;;;;;;8.05;2.20;;;8.20;99.90;;;;;;5010652;28;20497;-48
2021/01/30 09:24:25;;;;;;;1.52;1.42;;;7.50;99.90;;;;;;5012184;28;20479;-47
2021/01/30 09:26:59;;;;;;;2.78;1.90;;;6.70;99.90;;;;;;5005676;28;20026;-48
2021/01/30 09:29:33;;;;;;;2.05;1.95;;;6.10;99.90;;;;;;5009024;28;20022;-47
2021/01/30 09:32:00;;;;;;;3.75;2.60;;;5.40;99.90;;;;;;4995114;28;20022;-51
2021/01/30 09:34:32;;;;;;;3.30;3.05;;;5.10;99.90;;;;;;5001351;28;20033;-51
2021/01/30 09:36:58;;;;;;;3.90;3.33;;;4.90;99.90;;;;;;5012908;28;20030;-52
2021/01/30 09:39:30;;;;;;;4.35;3.90;;;4.50;99.90;;;;;;5011439;28;20083;-48
2021/01/30 09:42:18;;;;;;;6.78;5.05;;;4.30;99.90;;;;;;5005349;28;20045;-52
2021/01/30 09:44:47;;;;;;;5.57;4.80;;;4.20;99.90;;;;;;5003195;28;20034;-52
2021/01/30 09:47:21;;;;;;;5.72;4.97;;;4.20;99.90;;;;;;5013064;28;20037;-49
2021/01/30 09:49:58;;;;;;;6.78;5.63;;;4.10;99.90;;;;;;5004850;28;20057;-47
2021/01/30 09:52:23;;;;;;;8.38;6.55;;;3.90;99.90;;;;;;4998298;28;20023;-47
2021/01/30 09:55:01;;;;;;;8.73;7.32;;;3.80;99.90;;;;;;4998670;28;20075;-49
2021/01/30 09:57:27;;;;;;;9.35;7.20;;;3.70;99.90;;;;;;5003850;28;20030;-46
2021/01/30 10:00:06;;;;;;;11.43;7.63;;;3.70;99.90;;;;;;4993536;28;20026;-47
2021/01/30 10:02:31;;;;;;;8.85;7.28;;;3.70;99.90;;;;;;4999379;28;20030;-45
2021/01/30 10:05:14;;;;;;;9.73;7.85;;;3.60;99.90;;;;;;5011184;28;20071;-46
2021/01/30 10:07:42;;;;;;;10.27;8.50;;;3.50;99.90;;;;;;5001898;28;20683;-46
2021/01/30 10:10:31;;;;;;;12.65;9.07;;;3.50;99.90;;;;;;5013186;28;20022;-46
2021/01/30 10:12:59;;;;;;;14.57;9.30;;;3.70;99.90;;;;;;5007625;28;20046;-46
2021/01/30 10:15:36;;;;;;;10.68;8.60;;;3.60;99.90;;;;;;4994339;28;20022;-47
2021/01/30 10:18:07;;;;;;;11.85;8.95;;;3.50;99.90;;;;;;4997369;28;20497;-45
2021/01/30 10:20:48;;;;;;;12.73;9.32;;;3.50;99.90;;;;;;4994353;28;20080;-46
2021/01/30 10:23:36;;;;;;;14.30;10.50;;;3.60;99.90;;;;;;5001962;28;20034;-50
2021/01/30 10:26:11;;;;;;;10.65;8.60;;;3.60;99.90;;;;;;5002612;28;20030;-51
2021/01/30 10:28:56;;;;;;;;;;;3.40;99.90;;;;;;5016645;28;20550;-50
2021/01/30 10:31:31;;;;;;;13.15;10.15;;;3.60;99.90;;;;;;5024916;28;19988;-47
2021/01/30 10:34:29;;;;;;;11.20;9.32;;;3.40;99.90;;;;;;5009603;28;20056;-51
2021/01/30 10:37:09;;;;;;;16.10;10.32;;;3.30;99.90;;;;;;5011162;28;20022;-52
2021/01/30 10:39:39;;;;;;;11.82;9.50;;;3.40;99.90;;;;;;5000635;28;20026;-47
2021/01/30 10:42:13;;;;;;;14.55;9.57;;;3.20;99.90;;;;;;4992731;28;20126;-48
2021/01/30 10:44:45;;;;;;;13.25;10.05;;;3.40;99.90;;;;;;5002568;28;20501;-51
2021/01/30 10:47:11;;;;;;;12.20;8.85;;;3.30;99.90;;;;;;5012260;28;20480;-49
2021/01/30 10:49:37;;;;;;;12.10;8.80;;;3.30;99.90;;;;;;5001231;28;20418;-49
2021/01/30 10:52:21;;;;;;;11.27;9.27;;;3.20;99.90;;;;;;4992447;28;20073;-51
2021/01/30 10:54:47;;;;;;;10.02;8.35;;;;;;;;;;5001367;28;20033;-51
2021/01/30 10:57:18;;;;;;;12.75;8.80;;;2.90;99.90;;;;;;4992238;28;20026;-47
2021/01/30 10:59:47;;;;;;;10.50;8.80;;;2.90;99.90;;;;;;5002767;28;20544;-51
2021/01/30 11:02:47;;;;;;;11.50;9.20;;;3.00;99.90;;;;;;5011647;28;20075;-48
2021/01/30 11:05:18;;;;;;;12.25;9.70;;;2.80;99.90;;;;;;4997738;28;20034;-47
2021/01/30 11:07:54;;;;;;;11.82;9.02;;;2.80;99.90;;;;;;4991966;28;20109;-46
2021/01/30 11:10:40;;;;;;;16.40;11.50;;;3.00;99.90;;;;;;4993222;28;20433;-49
2021/01/30 11:13:25;;;;;;;12.95;10.55;;;3.00;99.90;;;;;;4991723;28;20042;-49
2021/01/30 11:16:01;;;;;;;13.77;10.90;;;2.90;99.90;;;;;;5008100;28;20038;-46
2021/01/30 11:18:32;;;;;;;12.52;10.07;;;2.60;99.90;;;;;;4994904;28;20399;-50
2021/01/30 11:20:58;;;;;;;14.07;10.40;;;2.70;99.90;;;;;;5007724;28;20050;-49
2021/01/30 11:23:46;;;;;;;13.48;11.18;;;2.70;99.90;;;;;;5000471;28;20022;-49
2021/01/30 11:26:16;;;;;;;15.32;11.57;;;2.80;99.90;;;;;;5011362;28;20076;-47
2021/01/30 11:28:43;;;;;;;13.80;10.75;;;2.70;99.90;;;;;;4990688;28;20062;-48
2021/01/30 11:31:10;;;;;;;14.77;12.18;;;2.60;99.90;;;;;;4991424;28;20033;-47
2021/01/30 11:33:36;;;;;;;13.60;11.50;;;2.60;99.90;;;;;;4990323;28;20026;-52
2021/01/30 11:36:04;;;;;;;15.63;11.45;;;2.60;99.90;;;;;;4991695;28;20541;-51
2021/01/30 11:38:30;;;;;;;16.77;12.77;;;2.60;99.90;;;;;;4991078;28;20030;-49
2021/01/30 11:40:58;;;;;;;14.43;11.38;;;2.70;99.90;;;;;;5011369;28;20504;-47
2021/01/30 11:43:24;;;;;;;15.45;11.48;;;2.70;99.90;;;;;;5011091;28;20030;-48
2021/01/30 11:45:50;;;;;;;16.83;11.77;;;2.70;99.90;;;;;;5010356;28;20018;-48
2021/01/30 11:48:17;;;;;;;14.23;12.07;;;2.60;99.90;;;;;;5028015;28;20033;-49
2021/01/30 11:50:43;;;;;;;14.50;11.00;;;2.60;99.90;;;;;;5026785;28;20025;-49
2021/01/30 11:53:11;;;;;;;13.77;11.85;;;2.50;99.90;;;;;;5010564;28;20030;-47
2021/01/30 11:55:38;;;;;;;13.57;12.07;;;2.60;99.90;;;;;;5010975;28;20088;-47
2021/01/30 11:58:04;;;;;;;14.02;12.13;;;2.60;99.90;;;;;;5010960;28;20033;-50
2021/01/30 12:00:29;;;;;;;14.82;12.13;;;2.70;99.90;;;;;;5011051;28;20033;-50
2021/01/30 12:02:55;;;;;;;13.50;11.15;;;2.80;99.90;;;;;;5014745;28;20535;-47
2021/01/30 12:05:20;;;;;;;12.65;10.63;;;2.80;99.90;;;;;;5030769;28;20044;-48
2021/01/30 12:07:46;;;;;;;14.30;11.88;;;2.80;99.90;;;;;;5025054;28;20026;-50
2021/01/30 12:10:12;;;;;;;11.77;10.52;;;2.90;99.90;;;;;;5010721;28;20513;-48
2021/01/30 12:12:38;;;;;;;14.10;11.80;;;2.80;99.90;;;;;;5008075;28;20043;-50
2021/01/30 12:15:06;;;;;;;12.77;11.45;;;2.90;99.90;;;;;;5002928;28;20026;-49
2021/01/30 12:17:35;;;;;;;13.27;10.43;;;2.90;99.90;;;;;;5009801;28;20068;-49
2021/01/30 12:20:02;;;;;;;15.40;12.60;;;2.90;99.90;;;;;;5007688;28;20394;-49
2021/01/30 12:22:27;;;;;;;12.77;10.88;;;3.00;99.90;;;;;;5009234;28;20108;-47
2021/01/30 12:24:53;;;;;;;13.20;10.98;;;3.10;99.90;;;;;;5006161;28;20105;-49
2021/01/30 12:27:18;;;;;;;12.30;10.98;;;3.10;99.90;;;;;;4997716;28;20137;-49
2021/01/30 12:29:44;;;;;;;11.02;9.90;;;3.10;99.90;;;;;;4991850;28;20034;-46
2021/01/30 12:32:11;;;;;;;14.13;10.93;;;3.00;99.90;;;;;;4992055;28;20062;-46
2021/01/30 12:34:36;;;;;;;11.88;10.60;;;2.90;99.90;;;;;;4991656;28;20118;-49
2021/01/30 12:37:02;;;;;;;11.80;10.10;;;3.00;99.90;;;;;;4997404;28;20057;-48
2021/01/30 12:39:28;;;;;;;9.60;8.57;;;2.90;99.90;;;;;;5007390;28;20049;-46
2021/01/30 12:41:53;;;;;;;12.18;10.50;;;2.80;99.90;;;;;;5002999;28;20028;-49
2021/01/30 12:44:22;;;;;;;10.23;9.18;;;2.80;99.90;;;;;;4990640;28;20089;-51
2021/01/30 12:46:49;;;;;;;11.27;9.63;;;2.80;99.90;;;;;;4993004;28;20109;-47
2021/01/30 12:49:14;;;;;;;10.15;9.10;;;2.80;99.90;;;;;;5005014;28;20030;-48
2021/01/30 12:51:40;;;;;;;10.20;9.20;;;2.80;99.90;;;;;;4995109;28;20022;-47
2021/01/30 12:54:07;;;;;;;11.02;9.82;;;2.80;99.90;;;;;;4994826;28;20027;-51
2021/01/30 12:56:33;;;;;;;8.95;8.05;;;2.90;99.90;;;;;;5014590;28;20464;-47
2021/01/30 12:58:58;;;;;;;9.15;8.00;;;2.90;99.90;;;;;;5014835;28;20416;-47
2021/01/30 13:01:24;;;;;;;8.73;7.82;;;2.80;99.90;;;;;;5013852;28;20038;-49
2021/01/30 13:03:50;;;;;;;11.18;9.82;;;2.90;99.90;;;;;;5014175;28;20037;-48
2021/01/30 13:06:18;;;;;;;9.48;8.52;;;2.90;99.90;;;;;;5012355;28;20109;-47
2021/01/30 13:08:44;;;;;;;9.85;8.85;;;2.90;99.90;;;;;;5013888;28;20041;-45
2021/01/30 13:11:10;;;;;;;8.95;8.05;;;3.00;99.90;;;;;;4997112;28;20085;-47
2021/01/30 13:13:35;;;;;;;9.50;8.10;;;3.00;99.90;;;;;;4995304;28;20030;-49
2021/01/30 13:16:01;;;;;;;8.68;7.78;;;2.90;99.90;;;;;;4994422;28;20038;-47
2021/01/30 13:18:26;;;;;;;8.50;7.70;;;2.90;99.90;;;;;;5001698;28;20485;-45
2021/01/30 13:20:52;;;;;;;9.07;7.95;;;3.00;99.90;;;;;;5012172;28;20026;-46
2021/01/30 13:23:17;;;;;;;8.27;7.40;;;2.90;99.90;;;;;;5011727;28;20091;-47